Time;durP1;ratioP1;P1;durP2;ratioP2;P2;SDS_P1;SDS_P2;PMS_P1;PMS_P2;Temp;Humidity;BMP_temperature;BMP_pressure;BME280_temperature;BME280_humidity;BME280_pressure;Samples;Min_cycle;Max_cycle;Signal;HPM_P1;HPM_P2
2020/12/25 00:00:38;;;;;;;13.85;7.93;;;13.40;99.90;;;;;;4982699;28;20080;-76
2020/12/25 00:03:07;;;;;;;10.60;8.27;;;13.40;99.90;;;;;;5017523;28;20030;-76
2020/12/25 00:05:34;;;;;;;13.90;7.38;;;13.40;99.90;;;;;;5014769;28;20037;-77
2020/12/25 00:08:00;;;;;;;13.88;8.57;;;13.50;99.90;;;;;;4997487;28;20041;-74
2020/12/25 00:10:26;;;;;;;15.38;7.57;;;13.50;99.90;;;;;;4997856;28;20075;-75
2020/12/25 00:12:57;;;;;;;10.15;8.07;;;13.50;99.90;;;;;;4997713;28;20037;-76
2020/12/25 00:15:26;;;;;;;11.43;7.65;;;13.50;99.90;;;;;;4995615;28;20050;-75
2020/12/25 00:17:51;;;;;;;16.08;8.32;;;13.50;99.90;;;;;;4994844;28;20495;-77
2020/12/25 00:20:17;;;;;;;9.32;7.75;;;13.50;99.90;;;;;;4995700;28;20034;-77
2020/12/25 00:22:43;;;;;;;10.88;7.22;;;13.50;99.90;;;;;;4997012;28;20094;-77
2020/12/25 00:25:09;;;;;;;11.57;7.45;;;13.50;99.90;;;;;;4997679;28;20030;-78
2020/12/25 00:27:35;;;;;;;11.68;7.80;;;13.50;99.90;;;;;;4995161;28;20030;-78
2020/12/25 00:30:00;;;;;;;8.85;7.15;;;13.50;99.90;;;;;;4995463;28;20034;-78
2020/12/25 00:32:26;;;;;;;11.27;7.05;;;13.50;99.90;;;;;;4993561;28;20428;-78
2020/12/25 00:34:52;;;;;;;11.05;6.25;;;13.50;99.90;;;;;;4993575;28;20034;-75
2020/12/25 00:37:18;;;;;;;11.88;7.90;;;13.50;99.90;;;;;;4993798;28;20031;-76
2020/12/25 00:39:43;;;;;;;8.73;6.90;;;13.50;99.90;;;;;;4993908;28;20022;-78
2020/12/25 00:42:10;;;;;;;15.02;6.07;;;13.50;99.90;;;;;;4993724;28;20022;-76
2020/12/25 00:44:36;;;;;;;8.65;6.55;;;13.50;99.90;;;;;;4995121;28;20363;-76
2020/12/25 00:47:02;;;;;;;12.90;7.25;;;13.40;99.90;;;;;;4993740;28;20033;-77
2020/12/25 00:49:27;;;;;;;9.20;6.68;;;13.40;99.90;;;;;;4994551;28;20034;-76
2020/12/25 00:51:53;;;;;;;10.50;6.55;;;13.40;99.90;;;;;;4994668;28;20058;-74
2020/12/25 00:54:22;;;;;;;8.13;5.88;;;13.40;99.90;;;;;;4994988;28;20097;-74
2020/12/25 00:56:48;;;;;;;11.70;6.38;;;13.40;99.90;;;;;;4993200;28;20147;-75
2020/12/25 00:59:16;;;;;;;10.55;6.15;;;13.40;99.90;;;;;;4993691;28;20118;-75
2020/12/25 01:01:43;;;;;;;8.63;6.32;;;13.30;99.90;;;;;;4993386;28;20030;-75
2020/12/25 01:04:09;;;;;;;9.15;5.82;;;13.30;99.90;;;;;;4993647;28;20038;-75
2020/12/25 01:06:34;;;;;;;12.27;6.07;;;13.30;99.90;;;;;;4993608;28;20100;-74
2020/12/25 01:09:00;;;;;;;6.78;6.13;;;13.30;99.90;;;;;;4993487;28;20027;-75
2020/12/25 01:11:29;;;;;;;12.40;7.25;;;13.30;99.90;;;;;;4993249;28;20026;-75
2020/12/25 01:13:55;;;;;;;8.43;5.47;;;13.30;99.90;;;;;;4998659;28;20408;-74
2020/12/25 01:16:20;;;;;;;9.73;5.47;;;13.30;99.90;;;;;;5013736;28;20025;-74
2020/12/25 01:18:47;;;;;;;9.05;6.25;;;13.30;99.90;;;;;;4996792;28;20037;-74
2020/12/25 01:21:16;;;;;;;13.50;8.88;;;13.30;99.90;;;;;;5014340;28;20018;-74
2020/12/25 01:23:42;;;;;;;46.72;28.70;;;13.30;99.90;;;;;;5014198;28;20103;-74
2020/12/25 01:26:09;;;;;;;53.92;28.90;;;13.20;99.90;;;;;;4996177;28;20029;-74
2020/12/25 01:28:36;;;;;;;47.00;33.17;;;13.20;99.90;;;;;;5013816;28;20026;-75
2020/12/25 01:31:02;;;;;;;36.53;21.60;;;13.20;99.90;;;;;;4996453;28;20071;-76
2020/12/25 01:33:35;;;;;;;41.78;28.20;;;13.20;99.90;;;;;;4996622;28;20026;-76
2020/12/25 01:36:03;;;;;;;68.95;41.30;;;13.20;99.90;;;;;;4996486;28;20424;-76
2020/12/25 01:38:29;;;;;;;33.88;21.60;;;13.20;99.90;;;;;;4980243;28;20030;-76
2020/12/25 01:40:54;;;;;;;60.15;37.28;;;13.20;99.90;;;;;;4996105;28;20159;-76
2020/12/25 01:43:20;;;;;;;73.57;42.67;;;13.20;99.90;;;;;;5013960;28;20030;-76
2020/12/25 01:45:46;;;;;;;71.95;40.03;;;13.20;99.90;;;;;;5013272;28;20037;-76
2020/12/25 01:48:12;;;;;;;37.78;26.27;;;13.20;99.90;;;;;;5013632;28;20029;-76
2020/12/25 01:50:39;;;;;;;50.60;32.25;;;13.20;99.90;;;;;;4995999;28;20033;-76
2020/12/25 01:53:08;;;;;;;42.58;26.00;;;13.10;99.90;;;;;;4995871;28;20026;-76
2020/12/25 01:55:36;;;;;;;18.92;13.65;;;13.10;99.90;;;;;;5013617;28;20026;-76
2020/12/25 01:58:04;;;;;;;18.60;14.32;;;13.10;99.90;;;;;;4995846;28;20057;-76
2020/12/25 02:00:30;;;;;;;21.60;14.52;;;13.10;99.90;;;;;;4995955;28;20084;-76
2020/12/25 02:02:57;;;;;;;16.63;10.27;;;13.10;99.90;;;;;;5013196;28;20080;-76
2020/12/25 02:05:23;;;;;;;17.15;7.78;;;13.10;99.90;;;;;;5013765;28;20034;-76
2020/12/25 02:07:49;;;;;;;11.38;7.38;;;13.10;99.90;;;;;;5014044;28;20113;-76
2020/12/25 02:10:15;;;;;;;14.52;7.65;;;13.20;99.90;;;;;;4995685;28;20084;-76
2020/12/25 02:12:41;;;;;;;11.00;7.78;;;13.30;99.90;;;;;;4996243;28;20030;-77
2020/12/25 02:15:08;;;;;;;12.75;8.35;;;13.40;99.90;;;;;;4995447;28;20058;-76
2020/12/25 02:17:34;;;;;;;12.30;7.40;;;13.40;99.90;;;;;;5013132;28;20471;-76
2020/12/25 02:20:02;;;;;;;10.73;6.40;;;13.40;99.90;;;;;;5013384;28;20037;-75
2020/12/25 02:22:29;;;;;;;11.00;6.28;;;13.50;99.90;;;;;;4996192;28;20034;-76
2020/12/25 02:24:55;;;;;;;14.13;7.45;;;13.60;99.90;;;;;;4995954;28;20030;-76
2020/12/25 02:27:21;;;;;;;8.52;5.63;;;13.60;99.90;;;;;;4996050;28;20022;-76
2020/12/25 02:29:47;;;;;;;13.05;6.07;;;13.60;99.90;;;;;;4996062;28;20026;-76
2020/12/25 02:32:12;;;;;;;10.13;5.18;;;13.60;99.90;;;;;;4997562;28;20090;-77
2020/12/25 02:34:38;;;;;;;8.65;4.25;;;13.60;99.90;;;;;;4997880;28;20388;-76
2020/12/25 02:37:06;;;;;;;8.68;4.18;;;13.70;99.90;;;;;;5013531;28;20476;-76
2020/12/25 02:39:34;;;;;;;9.23;4.53;;;13.80;99.90;;;;;;4995761;28;20030;-76
2020/12/25 02:42:00;;;;;;;10.15;4.32;;;13.80;99.90;;;;;;4996339;28;20033;-76
2020/12/25 02:44:26;;;;;;;9.88;4.78;;;13.80;99.90;;;;;;4995860;28;20030;-76
2020/12/25 02:46:52;;;;;;;7.40;4.28;;;13.80;99.90;;;;;;4995182;28;20392;-76
2020/12/25 02:49:18;;;;;;;11.35;4.90;;;13.80;99.90;;;;;;4995698;28;20109;-76
2020/12/25 02:51:43;;;;;;;6.72;4.47;;;13.80;99.90;;;;;;4995185;28;20046;-76
2020/12/25 02:54:09;;;;;;;7.78;4.10;;;13.80;99.90;;;;;;5012678;28;20045;-76
2020/12/25 02:56:35;;;;;;;9.73;4.78;;;13.80;99.90;;;;;;4996683;28;20032;-76
2020/12/25 02:59:03;;;;;;;9.98;4.22;;;13.80;99.90;;;;;;4999157;28;20029;-76
2020/12/25 03:01:29;;;;;;;11.27;4.03;;;13.80;99.90;;;;;;4999022;28;20132;-76
2020/12/25 03:03:54;;;;;;;4.47;4.00;;;13.80;99.90;;;;;;4998802;28;20054;-76
2020/12/25 03:06:20;;;;;;;9.43;4.07;;;13.80;99.90;;;;;;5016792;28;20076;-76
2020/12/25 03:08:46;;;;;;;9.55;4.10;;;13.80;99.90;;;;;;5016557;28;20033;-76
2020/12/25 03:11:12;;;;;;;9.30;4.53;;;13.90;99.90;;;;;;4998629;28;20068;-76
2020/12/25 03:13:37;;;;;;;7.82;3.80;;;13.90;99.90;;;;;;4998374;28;20052;-76
2020/12/25 03:16:04;;;;;;;6.47;4.03;;;13.90;99.90;;;;;;4998530;28;20534;-76
2020/12/25 03:18:30;;;;;;;9.70;3.97;;;13.90;99.90;;;;;;4999049;28;20577;-76
2020/12/25 03:20:56;;;;;;;6.25;4.35;;;14.00;99.90;;;;;;4998467;28;20030;-76
2020/12/25 03:23:25;;;;;;;6.70;3.70;;;14.00;99.90;;;;;;4998529;28;20030;-76
2020/12/25 03:26:09;;;;;;;7.80;4.00;;;14.00;99.90;;;;;;4998386;28;20030;-76
2020/12/25 03:28:34;;;;;;;10.95;4.05;;;13.90;99.90;;;;;;4998974;28;20268;-76
2020/12/25 03:31:00;;;;;;;6.88;4.05;;;13.90;99.90;;;;;;5016232;28;20529;-76
2020/12/25 03:33:26;;;;;;;12.00;4.68;;;13.90;99.90;;;;;;4998709;28;20392;-76
2020/12/25 03:35:52;;;;;;;7.35;3.90;;;13.90;99.90;;;;;;4998772;28;20490;-76
2020/12/25 03:38:18;;;;;;;11.23;4.78;;;13.90;99.90;;;;;;4998204;28;20060;-76
2020/12/25 03:40:44;;;;;;;5.70;5.13;;;13.80;99.90;;;;;;4998647;28;20025;-76
2020/12/25 03:43:10;;;;;;;10.25;4.60;;;13.80;99.90;;;;;;5015703;28;20554;-76
2020/12/25 03:45:36;;;;;;;8.68;4.60;;;13.80;99.90;;;;;;5016205;28;20453;-76
2020/12/25 03:48:02;;;;;;;12.55;5.05;;;13.80;99.90;;;;;;4997973;28;20061;-76
2020/12/25 03:50:28;;;;;;;10.63;4.63;;;13.80;99.90;;;;;;4997908;28;20040;-76
2020/12/25 03:52:54;;;;;;;7.85;5.10;;;13.80;99.90;;;;;;5015484;28;20040;-76
2020/12/25 03:55:20;;;;;;;11.55;4.80;;;13.80;99.90;;;;;;5015786;28;20030;-76
2020/12/25 03:57:46;;;;;;;7.72;4.32;;;13.70;99.90;;;;;;4998066;28;20388;-76
2020/12/25 04:00:11;;;;;;;7.93;4.25;;;13.70;99.90;;;;;;5015628;28;20018;-76
2020/12/25 04:02:37;;;;;;;7.03;5.03;;;13.80;99.90;;;;;;4997678;28;20400;-76
2020/12/25 04:05:04;;;;;;;6.10;4.45;;;13.80;99.90;;;;;;4998130;28;20025;-76
2020/12/25 04:07:29;;;;;;;16.55;5.72;;;13.80;99.90;;;;;;5015050;28;20030;-76
2020/12/25 04:09:55;;;;;;;7.68;4.85;;;13.80;99.90;;;;;;4998068;28;20045;-76
2020/12/25 04:12:21;;;;;;;10.13;5.28;;;13.80;99.90;;;;;;5015305;28;20030;-76
2020/12/25 04:14:47;;;;;;;12.82;5.47;;;13.80;99.90;;;;;;4993959;28;20050;-75
2020/12/25 04:17:12;;;;;;;8.93;5.03;;;13.80;99.90;;;;;;4994486;28;20453;-76
2020/12/25 04:19:38;;;;;;;8.73;4.30;;;13.80;99.90;;;;;;4994784;28;20394;-76
2020/12/25 04:22:04;;;;;;;7.32;4.25;;;13.80;99.90;;;;;;4994161;28;20053;-75
2020/12/25 04:24:29;;;;;;;6.68;4.22;;;13.90;99.90;;;;;;4995438;28;20069;-75
2020/12/25 04:26:55;;;;;;;4.25;3.67;;;13.90;99.90;;;;;;4994022;28;20030;-75
2020/12/25 04:29:21;;;;;;;9.48;3.92;;;14.00;99.90;;;;;;4994012;28;20081;-75
2020/12/25 04:31:47;;;;;;;7.13;4.38;;;14.00;99.90;;;;;;4994055;28;20027;-75
2020/12/25 04:34:13;;;;;;;7.07;4.70;;;14.00;99.90;;;;;;4994132;28;20065;-75
2020/12/25 04:36:38;;;;;;;8.85;4.57;;;14.00;99.90;;;;;;4993916;28;20465;-75
2020/12/25 04:39:06;;;;;;;9.50;4.45;;;14.00;99.90;;;;;;4995147;28;20038;-76
2020/12/25 04:41:33;;;;;;;11.43;4.80;;;14.00;99.90;;;;;;4995333;28;20022;-76
2020/12/25 04:44:00;;;;;;;7.72;3.97;;;14.10;99.90;;;;;;4995380;28;20038;-75
2020/12/25 04:46:26;;;;;;;7.47;4.50;;;14.10;99.90;;;;;;4998987;28;20030;-76
2020/12/25 04:48:52;;;;;;;7.90;4.57;;;14.10;99.90;;;;;;4997330;28;20054;-75
2020/12/25 04:51:18;;;;;;;7.25;3.88;;;14.10;99.90;;;;;;4977637;28;20511;-76
2020/12/25 04:53:52;;;;;;;14.18;5.50;;;14.10;99.90;;;;;;4993883;28;20070;-76
2020/12/25 04:56:19;;;;;;;10.20;4.13;;;14.10;99.90;;;;;;4993435;28;20117;-76
2020/12/25 04:58:46;;;;;;;7.65;4.40;;;14.10;99.90;;;;;;4993522;28;20026;-76
2020/12/25 05:01:12;;;;;;;10.98;4.20;;;14.10;99.90;;;;;;4993531;28;20392;-75
2020/12/25 05:03:40;;;;;;;11.10;4.57;;;14.10;99.90;;;;;;4993401;28;20037;-76
2020/12/25 05:06:08;;;;;;;7.05;4.57;;;14.20;99.90;;;;;;4993967;28;20362;-75
2020/12/25 05:08:39;;;;;;;10.15;4.90;;;14.20;99.90;;;;;;4993602;28;20034;-76
2020/12/25 05:11:06;;;;;;;10.80;4.00;;;14.20;99.90;;;;;;4993282;28;20075;-76
2020/12/25 05:13:33;;;;;;;9.20;4.43;;;14.30;99.90;;;;;;4994282;28;20038;-75
2020/12/25 05:15:59;;;;;;;10.63;5.18;;;14.30;99.90;;;;;;4996388;28;20076;-75
2020/12/25 05:18:31;;;;;;;6.88;4.18;;;14.30;99.90;;;;;;4996120;28;20498;-75
2020/12/25 05:20:58;;;;;;;11.25;5.22;;;14.30;99.90;;;;;;4996151;28;20037;-75
2020/12/25 05:23:31;;;;;;;15.07;4.10;;;14.40;99.90;;;;;;5014556;28;20029;-76
2020/12/25 05:25:59;;;;;;;6.68;3.70;;;14.40;99.90;;;;;;4980157;28;20042;-75
2020/12/25 05:28:29;;;;;;;8.98;4.50;;;14.40;99.90;;;;;;5013826;28;20021;-75
2020/12/25 05:30:57;;;;;;;10.77;5.05;;;14.40;99.90;;;;;;4996450;28;20054;-75
2020/12/25 05:33:25;;;;;;;10.85;4.70;;;14.40;99.90;;;;;;5014038;28;20060;-76
2020/12/25 05:35:54;;;;;;;8.98;4.28;;;14.40;99.90;;;;;;4996388;28;20088;-76
2020/12/25 05:38:26;;;;;;;12.93;4.90;;;14.40;99.90;;;;;;4996951;28;20346;-75
2020/12/25 05:40:52;;;;;;;11.98;5.38;;;14.40;99.90;;;;;;4996387;28;20033;-75
2020/12/25 05:43:18;;;;;;;7.57;4.65;;;14.40;99.90;;;;;;4996250;28;20392;-75
2020/12/25 05:45:44;;;;;;;5.60;3.88;;;14.40;99.90;;;;;;4996324;28;20034;-75
2020/12/25 05:48:10;;;;;;;5.20;3.97;;;14.40;99.90;;;;;;4996568;28;20058;-75
2020/12/25 05:50:37;;;;;;;13.00;3.97;;;14.40;99.90;;;;;;5013675;28;20025;-75
2020/12/25 05:53:03;;;;;;;7.90;3.67;;;14.40;99.90;;;;;;4995911;28;20065;-75
2020/12/25 05:55:30;;;;;;;10.02;5.10;;;14.40;99.90;;;;;;5013621;28;20030;-75
2020/12/25 05:57:56;;;;;;;9.80;4.75;;;14.40;99.90;;;;;;4995897;28;20026;-76
2020/12/25 06:00:24;;;;;;;10.25;4.65;;;14.40;99.90;;;;;;4996359;28;20038;-75
2020/12/25 06:02:52;;;;;;;7.80;4.50;;;14.40;99.90;;;;;;4980461;28;20065;-75
2020/12/25 06:05:22;;;;;;;11.93;4.20;;;14.40;99.90;;;;;;4995817;28;20036;-76
2020/12/25 06:07:53;;;;;;;8.85;5.07;;;14.40;99.90;;;;;;4979881;28;20037;-75
2020/12/25 06:10:21;;;;;;;5.35;3.72;;;14.40;99.90;;;;;;4995845;28;20480;-75
2020/12/25 06:12:48;;;;;;;7.53;5.57;;;14.40;99.90;;;;;;4995723;28;20058;-76
2020/12/25 06:15:33;;;;;;;11.35;4.15;;;14.40;99.90;;;;;;5013263;28;20057;-75
2020/12/25 06:18:35;;;;;;;10.02;4.03;;;14.40;99.90;;;;;;4996195;28;20033;-75
2020/12/25 06:21:08;;;;;;;12.02;4.50;;;14.40;99.90;;;;;;5013719;28;20057;-75
2020/12/25 06:23:37;;;;;;;11.65;5.10;;;14.50;99.90;;;;;;4995796;28;20033;-75
2020/12/25 06:26:06;;;;;;;7.57;3.53;;;14.50;99.90;;;;;;5013072;28;20468;-76
2020/12/25 06:28:38;;;;;;;11.32;4.50;;;14.50;99.90;;;;;;4995656;28;20025;-75
2020/12/25 06:31:30;;;;;;;8.65;4.28;;;14.50;99.90;;;;;;4997910;28;20036;-75
2020/12/25 06:33:55;;;;;;;7.88;4.57;;;14.50;99.90;;;;;;4999085;28;20037;-76
2020/12/25 06:36:29;;;;;;;11.10;4.20;;;14.50;99.90;;;;;;5017539;28;20026;-75
2020/12/25 06:39:03;;;;;;;6.03;3.85;;;14.50;99.90;;;;;;4983923;28;20061;-77
2020/12/25 06:41:28;;;;;;;10.95;4.07;;;14.50;99.90;;;;;;4999602;28;20491;-76
2020/12/25 06:43:55;;;;;;;8.85;4.07;;;14.50;99.90;;;;;;4999804;28;20026;-75
2020/12/25 06:46:33;;;;;;;7.07;4.10;;;14.50;99.90;;;;;;5016752;28;20041;-75
2020/12/25 06:51:47;;;;;;;8.68;3.78;;;14.50;99.90;;;;;;5114383;22;1038839;-75
2020/12/25 06:54:19;;;;;;;5.70;4.03;;;14.50;99.90;;;;;;5111644;28;20115;-76
2020/12/25 06:56:47;;;;;;;4.43;3.42;;;14.50;99.90;;;;;;5093688;28;20023;-75
2020/12/25 06:59:15;;;;;;;6.45;4.45;;;14.50;99.90;;;;;;5093183;28;20024;-75
2020/12/25 07:01:45;;;;;;;11.85;4.30;;;14.50;99.90;;;;;;5093703;28;20020;-77
2020/12/25 07:04:27;;;;;;;8.38;4.65;;;14.50;99.90;;;;;;5092796;28;20035;-76
2020/12/25 07:07:03;;;;;;;10.13;4.43;;;14.50;99.90;;;;;;5093577;28;20118;-76
2020/12/25 07:09:42;;;;;;;7.30;4.50;;;14.50;99.90;;;;;;5092860;28;20032;-76
2020/12/25 07:12:22;;;;;;;10.38;4.70;;;14.50;99.90;;;;;;5111735;28;20171;-76
2020/12/25 07:14:48;;;;;;;10.13;3.92;;;14.50;99.90;;;;;;5077507;28;20442;-76
2020/12/25 07:17:14;;;;;;;8.57;4.32;;;14.50;99.90;;;;;;5110601;28;20023;-78
2020/12/25 07:19:43;;;;;;;6.55;3.55;;;14.50;99.90;;;;;;5092017;28;20059;-76
2020/12/25 07:22:09;;;;;;;14.02;4.63;;;14.50;99.90;;;;;;5111248;28;20042;-76
2020/12/25 07:24:44;;;;;;;7.75;4.65;;;14.50;99.90;;;;;;5092968;28;20377;-76
2020/12/25 07:27:11;;;;;;;7.10;4.80;;;14.50;99.90;;;;;;5092884;28;20016;-77
2020/12/25 07:29:37;;;;;;;7.28;4.05;;;14.50;99.90;;;;;;5092824;28;20381;-75
2020/12/25 07:32:03;;;;;;;8.30;4.97;;;14.50;99.90;;;;;;5111305;28;20024;-77
2020/12/25 07:34:29;;;;;;;8.73;3.80;;;14.50;99.90;;;;;;5092657;28;20028;-77
2020/12/25 07:36:57;;;;;;;12.25;5.30;;;14.50;99.90;;;;;;5092666;28;20028;-77
2020/12/25 07:39:24;;;;;;;7.35;5.20;;;14.60;99.90;;;;;;5076271;28;20028;-77
2020/12/25 07:41:50;;;;;;;9.50;5.25;;;14.60;99.90;;;;;;5110531;28;20065;-77
2020/12/25 07:44:17;;;;;;;21.33;9.65;;;14.60;99.90;;;;;;5093048;28;20028;-77
2020/12/25 07:46:43;;;;;;;15.43;7.88;;;14.60;99.90;;;;;;5093435;28;20028;-77
2020/12/25 07:49:09;;;;;;;11.80;5.68;;;14.60;99.90;;;;;;5092480;28;20027;-77
2020/12/25 07:51:35;;;;;;;9.57;6.32;;;14.70;99.90;;;;;;5110542;28;20052;-77
2020/12/25 07:54:03;;;;;;;21.63;8.07;;;14.70;99.90;;;;;;5075671;28;20081;-78
2020/12/25 07:56:33;;;;;;;9.55;4.53;;;14.70;99.90;;;;;;5110539;28;20024;-77
2020/12/25 07:58:59;;;;;;;15.02;4.28;;;14.70;99.90;;;;;;5092224;28;20020;-78
2020/12/25 08:01:27;;;;;;;8.13;3.38;;;14.70;99.90;;;;;;5087562;28;20035;-76
2020/12/25 08:03:56;;;;;;;5.88;3.35;;;14.70;99.90;;;;;;5097251;28;20107;-75
2020/12/25 08:06:23;;;;;;;8.90;4.43;;;14.80;99.90;;;;;;5078510;28;20108;-77
2020/12/25 08:09:05;;;;;;;6.97;6.10;;;14.80;99.90;;;;;;5097036;28;20024;-76
2020/12/25 08:11:31;;;;;;;10.77;5.30;;;14.80;99.90;;;;;;5078444;28;20128;-78
2020/12/25 08:14:07;;;;;;;8.57;3.85;;;14.90;99.90;;;;;;5077969;28;20134;-77
2020/12/25 08:16:37;;;;;;;8.82;4.05;;;15.00;99.90;;;;;;5096521;28;20124;-76
2020/12/25 08:19:06;;;;;;;9.30;3.55;;;15.00;99.90;;;;;;5077795;28;20028;-77
2020/12/25 08:21:34;;;;;;;8.25;3.25;;;15.10;99.90;;;;;;5078142;28;20028;-77
2020/12/25 08:24:03;;;;;;;7.25;3.45;;;15.20;99.90;;;;;;5078061;28;20024;-77
2020/12/25 08:26:33;;;;;;;7.55;3.20;;;15.10;99.90;;;;;;5095964;28;20470;-77
2020/12/25 08:28:59;;;;;;;4.93;3.70;;;15.20;99.90;;;;;;5045381;28;20474;-77
2020/12/25 08:31:32;;;;;;;8.35;4.68;;;15.20;99.90;;;;;;5095698;28;20032;-78
2020/12/25 08:33:58;;;;;;;5.57;3.55;;;15.10;99.90;;;;;;5096228;28;20020;-75
2020/12/25 08:36:24;;;;;;;5.75;5.10;;;15.20;99.90;;;;;;5078800;28;20093;-77
2020/12/25 08:38:50;;;;;;;7.75;4.40;;;15.20;99.90;;;;;;5077751;28;20439;-77
2020/12/25 08:41:17;;;;;;;5.18;3.17;;;15.10;99.90;;;;;;5077360;28;20036;-78
2020/12/25 08:43:43;;;;;;;6.32;3.22;;;15.10;99.90;;;;;;5095931;28;20032;-78
2020/12/25 08:46:09;;;;;;;9.43;4.28;;;15.10;99.90;;;;;;5095909;28;20024;-78
2020/12/25 08:48:48;;;;;;;6.15;4.13;;;15.10;99.90;;;;;;5095822;28;20059;-77
2020/12/25 08:51:17;;;;;;;13.95;7.13;;;15.20;99.90;;;;;;5095458;28;20047;-78
2020/12/25 08:53:51;;;;;;;8.57;4.97;;;15.20;99.90;;;;;;5078313;28;20478;-78
2020/12/25 08:56:21;;;;;;;8.55;6.25;;;15.20;99.90;;;;;;5095983;28;20028;-78
2020/12/25 08:58:57;;;;;;;5.22;3.97;;;15.10;99.00;;;;;;5077123;28;20026;-78
2020/12/25 09:01:24;;;;;;;6.97;2.95;;;15.10;98.20;;;;;;5077684;28;20032;-77
2020/12/25 09:03:50;;;;;;;14.07;4.88;;;15.20;98.10;;;;;;5077030;28;20085;-78
2020/12/25 09:06:28;;;;;;;4.72;2.80;;;15.20;97.80;;;;;;5077573;28;20104;-78
2020/12/25 09:08:55;;;;;;;5.93;3.67;;;15.20;97.20;;;;;;5075929;28;20493;-78
2020/12/25 09:11:24;;;;;;;11.38;5.22;;;15.20;97.40;;;;;;5077242;28;20028;-78
2020/12/25 09:13:54;;;;;;;10.80;5.65;;;15.10;97.30;;;;;;5094109;28;20020;-76
2020/12/25 09:16:21;;;;;;;8.23;5.35;;;15.20;97.60;;;;;;5094808;28;20074;-78
2020/12/25 09:18:47;;;;;;;8.85;5.28;;;15.20;97.20;;;;;;5076811;28;20021;-77
2020/12/25 09:21:14;;;;;;;6.57;4.55;;;15.30;96.30;;;;;;5095213;28;20052;-77
2020/12/25 09:23:41;;;;;;;11.73;5.95;;;15.40;95.90;;;;;;5076708;28;20465;-77
2020/12/25 09:26:08;;;;;;;7.65;4.85;;;15.40;95.50;;;;;;5094922;28;20024;-77
2020/12/25 09:28:38;;;;;;;7.78;4.15;;;15.50;95.10;;;;;;5094903;28;20050;-77
2020/12/25 09:31:05;;;;;;;5.63;4.95;;;15.60;94.70;;;;;;5076715;28;20455;-78
2020/12/25 09:33:34;;;;;;;11.85;5.93;;;15.60;94.60;;;;;;5076519;28;20063;-78
2020/12/25 09:36:03;;;;;;;8.20;5.65;;;15.70;94.40;;;;;;5076234;28;20028;-77
2020/12/25 09:38:28;;;;;;;9.13;3.97;;;16.00;93.70;;;;;;5076962;28;20089;-77
2020/12/25 09:40:57;;;;;;;7.75;3.55;;;16.60;92.80;;;;;;5076153;28;20119;-78
2020/12/25 09:43:28;;;;;;;8.57;4.15;;;17.30;91.20;;;;;;5076328;28;20023;-78
2020/12/25 09:45:54;;;;;;;8.98;4.47;;;17.90;90.10;;;;;;5076703;28;20034;-77
2020/12/25 09:48:20;;;;;;;30.15;22.38;;;18.50;88.30;;;;;;5076709;28;20114;-78
2020/12/25 09:50:46;;;;;;;6.43;3.92;;;19.00;86.90;;;;;;5075709;28;20063;-77
2020/12/25 09:53:15;;;;;;;13.93;7.45;;;19.50;84.00;;;;;;5095615;28;20389;-77
2020/12/25 09:55:42;;;;;;;8.27;6.60;;;19.70;82.50;;;;;;5094531;28;20024;-78
2020/12/25 09:58:11;;;;;;;5.75;4.10;;;19.70;82.00;;;;;;5076485;28;20024;-77
2020/12/25 10:00:37;;;;;;;13.27;9.80;;;19.50;82.00;;;;;;5094048;28;20016;-77
2020/12/25 10:03:05;;;;;;;11.10;6.55;;;19.60;81.90;;;;;;5076690;28;20020;-77
2020/12/25 10:05:31;;;;;;;17.27;6.85;;;19.50;82.60;;;;;;5094592;28;20045;-77
2020/12/25 10:07:57;;;;;;;16.00;6.38;;;19.50;82.40;;;;;;5076567;28;20040;-78
2020/12/25 10:10:24;;;;;;;7.70;4.03;;;19.20;82.00;;;;;;5075820;28;20115;-78
2020/12/25 10:12:51;;;;;;;7.20;4.38;;;19.00;82.90;;;;;;5076296;28;20072;-77
2020/12/25 10:15:17;;;;;;;3.40;3.10;;;18.70;83.40;;;;;;5076545;28;20501;-78
2020/12/25 10:17:43;;;;;;;5.90;4.05;;;18.40;83.30;;;;;;5076463;28;20024;-77
2020/12/25 10:20:11;;;;;;;10.13;5.72;;;18.20;84.20;;;;;;5093970;28;20032;-77
2020/12/25 10:22:37;;;;;;;4.90;3.88;;;17.90;84.80;;;;;;5075728;28;20081;-78
2020/12/25 10:25:04;;;;;;;5.43;3.60;;;17.70;86.10;;;;;;5075215;28;20036;-78
2020/12/25 10:27:29;;;;;;;5.63;3.88;;;17.50;86.60;;;;;;5094281;28;20450;-77
2020/12/25 10:29:55;;;;;;;11.73;4.70;;;17.30;87.40;;;;;;5075620;28;20074;-77
2020/12/25 10:32:21;;;;;;;6.68;4.20;;;17.20;88.30;;;;;;5075398;28;20065;-77
2020/12/25 10:34:47;;;;;;;7.75;5.05;;;17.10;88.50;;;;;;5074794;28;20035;-77
2020/12/25 10:40:25;;;;;;;5.63;2.58;;;16.60;89.10;;;;;;5096676;22;20093;-79
2020/12/25 10:42:54;;;;;;;20.48;2.72;;;16.90;90.10;;;;;;5046162;28;20029;-79
2020/12/25 10:45:20;;;;;;;8.50;3.85;;;16.80;90.30;;;;;;5029510;28;20041;-79
2020/12/25 10:47:46;;;;;;;8.63;3.60;;;16.70;90.70;;;;;;5028836;28;20053;-79
2020/12/25 10:50:12;;;;;;;7.70;3.08;;;16.60;91.10;;;;;;5029304;28;20044;-80
2020/12/25 10:52:37;;;;;;;6.55;3.72;;;16.50;91.40;;;;;;5028134;28;20072;-79
2020/12/25 10:55:03;;;;;;;9.65;4.97;;;16.50;91.70;;;;;;5029438;28;20056;-79
2020/12/25 10:57:29;;;;;;;12.00;6.93;;;16.50;92.10;;;;;;5029286;28;20061;-79
2020/12/25 10:59:58;;;;;;;10.95;7.78;;;16.50;92.30;;;;;;5030288;28;20029;-79
2020/12/25 11:02:26;;;;;;;15.63;10.07;;;16.50;92.70;;;;;;5030032;28;20053;-79
2020/12/25 11:04:54;;;;;;;8.85;5.00;;;16.60;92.70;;;;;;5030323;28;20122;-80
2020/12/25 11:07:23;;;;;;;10.27;5.00;;;16.70;92.40;;;;;;5048653;28;20025;-79
2020/12/25 11:09:51;;;;;;;8.02;4.32;;;16.80;92.10;;;;;;5029504;28;20048;-80
2020/12/25 11:12:20;;;;;;;11.10;3.72;;;17.10;91.60;;;;;;5028288;28;20037;-79
2020/12/25 11:14:46;;;;;;;8.32;3.83;;;17.30;91.10;;;;;;5027198;28;20052;-79
2020/12/25 11:17:15;;;;;;;10.75;5.00;;;17.60;90.60;;;;;;5025520;28;20049;-77
2020/12/25 11:19:42;;;;;;;11.20;5.57;;;18.00;90.40;;;;;;5046680;28;20024;-79
2020/12/25 11:22:13;;;;;;;9.23;6.15;;;18.30;90.10;;;;;;5037630;28;20032;-83
2020/12/25 11:24:42;;;;;;;13.10;7.88;;;18.30;90.20;;;;;;5037280;28;20030;-80
2020/12/25 11:27:08;;;;;;;14.00;7.53;;;18.20;90.00;;;;;;5034610;28;20021;-80
2020/12/25 11:29:34;;;;;;;8.57;5.28;;;18.00;90.00;;;;;;5048387;28;20036;-80
2020/12/25 11:32:00;;;;;;;10.05;6.43;;;17.90;90.10;;;;;;5026835;28;20056;-79
2020/12/25 11:34:25;;;;;;;6.40;4.88;;;17.70;90.60;;;;;;5028036;28;20036;-80
2020/12/25 11:36:54;;;;;;;12.48;4.93;;;17.70;90.70;;;;;;5028899;28;20044;-79
2020/12/25 11:48:34;;;;;;;8.70;5.18;;;;;;;;;;5094969;27;1660320;-79
2020/12/25 11:51:00;;;;;;;16.33;7.70;;;;;;;;;;5132312;28;20027;-77
2020/12/25 11:54:53;;;;;;;9.77;6.20;;;;;;;;;;5151676;27;20860;-75
2020/12/25 11:57:19;;;;;;;11.07;7.47;;;;;;;;;;5115213;28;20031;-78
2020/12/25 12:00:04;;;;;;;9.38;6.55;;;;;;;;;;5008769;28;20706;-80
2020/12/25 12:02:30;;;;;;;11.48;7.22;;;;;;;;;;5007544;28;20033;-78
2020/12/25 12:04:56;;;;;;;10.40;5.78;;;;;;;;;;4989513;28;20117;-75
2020/12/25 12:07:23;;;;;;;17.13;8.43;;;;;;;;;;4989810;28;20056;-74
2020/12/25 12:09:49;;;;;;;8.95;4.50;;;;;;;;;;5007072;28;20034;-77
2020/12/25 12:12:15;;;;;;;5.40;3.42;;;;;;;;;;4989595;28;20113;-77
2020/12/25 12:14:41;;;;;;;13.05;6.35;;;;;;;;;;4990869;28;20399;-76
2020/12/25 12:17:07;;;;;;;10.30;5.63;;;;;;;;;;4988591;28;20022;-76
2020/12/25 12:19:33;;;;;;;19.83;12.05;;;;;;;;;;4989237;28;20437;-76
2020/12/25 12:21:59;;;;;;;12.07;7.68;;;;;;;;;;4989715;28;20427;-76
2020/12/25 12:24:26;;;;;;;12.02;6.55;;;;;;;;;;4989669;28;20038;-75
2020/12/25 12:26:52;;;;;;;11.38;6.55;;;;;;;;;;4994534;28;20117;-75
2020/12/25 12:29:18;;;;;;;6.78;4.78;;;;;;;;;;4976843;28;20041;-75
2020/12/25 12:32:54;;;;;;;9.85;6.53;;;;;;;;;;5072241;27;1779384;-75
2020/12/25 12:35:20;;;;;;;10.70;5.43;;;;;;;;;;5104590;28;20038;-76
2020/12/25 12:37:46;;;;;;;15.50;7.07;;;;;;;;;;5093473;28;20051;-77
2020/12/25 12:40:14;;;;;;;15.90;6.53;;;;;;;;;;5111981;28;20023;-77
2020/12/25 12:42:40;;;;;;;8.82;5.47;;;;;;;;;;5111548;28;20019;-76
2020/12/25 12:45:07;;;;;;;14.75;8.30;;;;;;;;;;5093531;28;20024;-76
2020/12/25 12:47:33;;;;;;;15.68;10.02;;;;;;;;;;5093174;28;20076;-76
2020/12/25 12:49:59;;;;;;;19.85;11.63;;;;;;;;;;5093538;28;20028;-76
2020/12/25 12:52:25;;;;;;;13.77;7.63;;;;;;;;;;5092723;28;20111;-78
2020/12/25 12:54:52;;;;;;;8.43;6.03;;;;;;;;;;5093559;28;20369;-77
2020/12/25 12:57:18;;;;;;;13.00;8.48;;;;;;;;;;5092848;28;20035;-78
2020/12/25 12:59:44;;;;;;;18.08;9.40;;;;;;;;;;5093492;28;20024;-77
2020/12/25 13:02:10;;;;;;;20.50;11.40;;;;;;;;;;5092942;28;20488;-76
2020/12/25 13:04:36;;;;;;;14.75;8.45;;;;;;;;;;5092712;28;20031;-77
2020/12/25 13:07:04;;;;;;;11.10;6.97;;;;;;;;;;5092622;28;20024;-76
2020/12/25 13:09:30;;;;;;;11.60;6.10;;;;;;;;;;5111256;28;20424;-77
2020/12/25 13:11:56;;;;;;;19.20;13.32;;;;;;;;;;5092156;28;20027;-75